Time;durP1;ratioP1;P1;durP2;ratioP2;P2;SDS_P1;SDS_P2;PMS_P1;PMS_P2;Temp;Humidity;BMP_temperature;BMP_pressure;BME280_temperature;BME280_humidity;BME280_pressure;Samples;Min_cycle;Max_cycle;Signal;HPM_P1;HPM_P2
2021/11/08 00:00:55;;;;;;;23.15;9.77;;;;;;;7.32;70.30;98643.94;4879420;29;20022;-85
2021/11/08 00:03:26;;;;;;;24.77;10.60;;;;;;;7.16;70.29;98619.88;4892285;29;20029;-83
2021/11/08 00:05:53;;;;;;;19.02;9.30;;;;;;;7.25;70.42;98634.34;4866602;29;20428;-88
2021/11/08 00:08:20;;;;;;;24.13;9.83;;;;;;;7.26;70.51;98632.41;4858270;29;20428;-88
2021/11/08 00:10:47;;;;;;;24.42;10.48;;;;;;;7.30;70.33;98641.56;4860665;29;20056;-85
2021/11/08 00:13:15;;;;;;;23.00;9.95;;;;;;;7.24;70.23;98635.44;4860822;29;20038;-85
2021/11/08 00:20:56;;;;;;;24.15;9.60;;;;;;;7.21;70.17;98636.03;4838148;29;20058;-85
2021/11/08 00:23:24;;;;;;;29.95;9.60;;;;;;;7.01;70.48;98596.53;4818788;29;20135;-85
2021/11/08 00:25:51;;;;;;;22.02;9.55;;;;;;;7.14;70.26;98607.69;4842126;29;20157;-85
2021/11/08 00:28:19;;;;;;;23.98;9.73;;;;;;;7.20;69.87;98623.56;4842579;29;20132;-84
2021/11/08 00:30:47;;;;;;;22.95;10.48;;;;;;;7.22;70.03;98618.63;4842598;29;20053;-85
2021/11/08 00:33:17;;;;;;;23.27;9.75;;;;;;;7.20;70.06;98612.69;4825431;29;20060;-86
2021/11/08 00:35:46;;;;;;;24.77;10.70;;;;;;;7.12;70.03;98597.13;4823039;29;20086;-87
2021/11/08 00:38:14;;;;;;;21.92;10.63;;;;;;;7.22;70.11;98599.59;4841783;29;20041;-85
2021/11/08 00:40:42;;;;;;;23.00;9.90;;;;;;;7.17;70.13;98613.31;4841235;29;20046;-86
2021/11/08 00:43:10;;;;;;;29.98;10.65;;;;;;;7.08;69.93;98590.69;4837651;29;20054;-87
2021/11/08 00:45:37;;;;;;;22.85;10.52;;;;;;;7.19;69.72;98605.66;4826800;29;20050;-85
2021/11/08 00:48:04;;;;;;;24.25;10.30;;;;;;;7.21;69.68;98606.13;4826805;29;20052;-85
2021/11/08 00:50:32;;;;;;;22.23;8.82;;;;;;;7.17;69.68;98588.06;4841430;29;20126;-88
2021/11/08 00:53:00;;;;;;;26.83;10.77;;;;;;;7.07;69.69;98576.31;4840789;29;20057;-85
2021/11/08 00:55:30;;;;;;;23.98;11.00;;;;;;;7.03;69.79;98566.38;4825346;29;20566;-85
2021/11/08 00:57:58;;;;;;;23.38;9.43;;;;;;;7.03;69.43;98561.72;4851180;29;20065;-86
2021/11/08 01:00:27;;;;;;;20.85;10.32;;;;;;;7.16;69.47;98586.44;4869014;29;20064;-85
2021/11/08 01:02:53;;;;;;;33.83;11.43;;;;;;;7.19;69.20;98580.41;4839008;29;20045;-86
2021/11/08 01:05:21;;;;;;;;;;;;;;;7.19;69.25;98574.97;4864318;29;20052;-85
2021/11/08 01:07:47;;;;;;;25.27;9.38;;;;;;;7.18;69.40;98576.84;4860758;29;19931;-84
2021/11/08 01:10:17;;;;;;;23.73;9.63;;;;;;;7.15;69.25;98574.78;4861764;29;20507;-85
2021/11/08 01:12:45;;;;;;;20.83;9.70;;;;;;;7.15;69.33;98577.50;4851037;29;20054;-85
2021/11/08 01:15:13;;;;;;;22.35;9.55;;;;;;;6.98;69.05;98545.53;4873046;29;20454;-84
2021/11/08 01:17:40;;;;;;;31.70;10.40;;;;;;;7.03;69.24;98556.28;4860818;29;20045;-84
2021/11/08 01:20:10;;;;;;;21.92;10.85;;;;;;;7.19;69.37;98574.97;4861445;29;20094;-86
2021/11/08 01:22:37;;;;;;;21.83;9.05;;;;;;;7.22;68.91;98566.19;4860118;29;20057;-86
2021/11/08 01:25:05;;;;;;;21.33;8.52;;;;;;;7.19;68.91;98575.75;4860149;29;20640;-84
2021/11/08 01:27:41;;;;;;;23.10;10.48;;;;;;;7.17;68.98;98563.59;4847294;29;20052;-83
2021/11/08 01:30:14;;;;;;;25.50;10.55;;;;;;;7.16;69.14;98541.03;4862423;29;20041;-84
2021/11/08 01:32:52;;;;;;;28.08;10.98;;;;;;;7.18;69.16;98543.44;4861473;29;20033;-86
2021/11/08 01:35:28;;;;;;;18.83;8.90;;;;;;;7.09;69.49;98526.28;4851687;29;20112;-84
2021/11/08 01:38:07;;;;;;;27.13;10.48;;;;;;;7.09;69.09;98521.66;4860866;29;20419;-85
2021/11/08 01:40:37;;;;;;;29.95;10.38;;;;;;;7.08;69.25;98506.44;4875071;29;20048;-84
2021/11/08 01:43:04;;;;;;;24.77;10.35;;;;;;;7.09;69.33;98499.91;4859783;29;20045;-86
2021/11/08 01:45:32;;;;;;;20.70;9.77;;;;;;;7.18;69.40;98517.06;4854296;29;20094;-86
2021/11/08 01:47:59;;;;;;;20.88;9.55;;;;;;;6.92;69.36;98472.59;4858242;29;20042;-85
2021/11/08 01:50:27;;;;;;;23.63;10.55;;;;;;;7.15;69.25;98515.00;4850228;29;20061;-83
2021/11/08 01:52:55;;;;;;;31.83;10.70;;;;;;;7.14;69.22;98518.78;4859890;29;20491;-85
2021/11/08 01:55:24;;;;;;;34.10;10.65;;;;;;;6.99;69.26;98484.66;4858803;29;20161;-86
2021/11/08 01:58:12;;;;;;;21.35;10.25;;;;;;;7.19;69.09;98515.16;4858187;29;20046;-83
2021/11/08 02:00:39;;;;;;;27.17;9.13;;;;;;;7.13;68.95;98506.34;4860870;29;20076;-86
2021/11/08 02:03:10;;;;;;;21.52;11.02;;;;;;;7.06;69.14;98486.94;4860389;29;20041;-85
2021/11/08 02:05:36;;;;;;;22.25;10.30;;;;;;;7.16;69.19;98505.72;4859084;29;20162;-86
2021/11/08 02:08:03;;;;;;;23.42;9.65;;;;;;;6.98;69.21;98474.88;4845124;29;20093;-84
2021/11/08 02:10:29;;;;;;;31.52;11.00;;;;;;;7.05;69.25;98497.00;4855190;29;20060;-84
2021/11/08 02:12:57;;;;;;;30.17;10.90;;;;;;;6.95;69.45;98480.13;4856530;29;20073;-84
2021/11/08 02:15:23;;;;;;;27.20;10.70;;;;;;;7.09;69.51;98494.47;4829843;29;20147;-81
2021/11/08 02:17:49;;;;;;;33.03;11.00;;;;;;;7.11;69.23;98491.44;4861385;29;20142;-78
2021/11/08 02:20:20;;;;;;;28.35;11.75;;;;;;;7.15;69.24;98493.25;4860333;29;20145;-79
2021/11/08 02:22:52;;;;;;;36.13;12.40;;;;;;;7.13;69.08;98490.03;4859919;29;20070;-87
2021/11/08 02:25:21;;;;;;;27.92;11.60;;;;;;;7.15;69.08;98486.97;4860177;29;20567;-77
2021/11/08 02:27:49;;;;;;;34.28;13.30;;;;;;;7.16;69.24;98483.16;4849768;29;20050;-78
2021/11/08 02:30:16;;;;;;;34.15;12.90;;;;;;;7.19;68.91;98472.47;4845983;29;20045;-80
2021/11/08 02:32:43;;;;;;;38.63;13.38;;;;;;;7.21;69.08;98477.59;4855110;29;20049;-76
2021/11/08 02:35:11;;;;;;;;;;;;;;;7.24;69.04;98474.25;4860288;29;20042;-87
2021/11/08 02:37:38;;;;;;;35.88;12.93;;;;;;;7.20;68.83;98467.84;4844226;29;19928;-79
2021/11/08 02:40:08;;;;;;;34.80;13.82;;;;;;;7.17;68.94;98463.81;4849552;29;20136;-88
2021/11/08 02:42:35;;;;;;;32.58;13.73;;;;;;;7.19;68.78;98477.91;4859721;29;20052;-76
2021/11/08 02:45:07;;;;;;;35.97;12.27;;;;;;;7.23;68.82;98484.31;4858541;29;20045;-79
2021/11/08 02:47:34;;;;;;;27.80;10.98;;;;;;;7.25;68.62;98471.22;4854942;29;20120;-76
2021/11/08 02:50:02;;;;;;;25.55;11.23;;;;;;;7.25;68.87;98462.25;4855793;29;20046;-80
2021/11/08 02:52:28;;;;;;;31.65;12.45;;;;;;;7.24;68.50;98453.31;4848327;29;20120;-77
2021/11/08 02:54:54;;;;;;;28.70;11.55;;;;;;;7.26;68.75;98456.53;4850717;29;20515;-85
2021/11/08 02:57:24;;;;;;;30.60;13.00;;;;;;;7.28;68.70;98458.91;4855215;29;20077;-83
2021/11/08 02:59:51;;;;;;;34.15;13.52;;;;;;;7.27;68.81;98452.69;4855304;29;20045;-78
2021/11/08 03:02:19;;;;;;;30.17;11.63;;;;;;;7.27;68.71;98443.72;4847184;29;20046;-75
2021/11/08 03:04:51;;;;;;;28.10;11.93;;;;;;;7.18;68.66;98438.25;4845018;29;20116;-84
2021/11/08 03:07:18;;;;;;;32.95;12.70;;;;;;;7.27;69.02;98446.44;4840124;29;20037;-82
2021/11/08 03:09:50;;;;;;;32.88;12.85;;;;;;;7.27;69.09;98446.44;4855412;29;20579;-82
2021/11/08 03:12:22;;;;;;;35.92;13.93;;;;;;;7.21;68.76;98428.66;4862582;29;20045;-87
2021/11/08 03:15:08;;;;;;;33.72;14.15;;;;;;;7.20;69.40;98432.50;4855902;29;20090;-83
2021/11/08 03:17:40;;;;;;;35.88;13.20;;;;;;;7.25;68.92;98438.63;4863699;29;20128;-87
2021/11/08 03:20:11;;;;;;;36.17;13.20;;;;;;;7.35;69.07;98436.72;4864089;29;20124;-82
2021/11/08 03:22:38;;;;;;;35.13;12.57;;;;;;;7.21;68.65;98421.31;4863854;29;20046;-85
2021/11/08 03:25:13;;;;;;;24.20;10.60;;;;;;;7.28;68.53;98432.56;4862029;29;20064;-87
2021/11/08 03:30:16;;;;;;;30.63;13.20;;;;;;;7.37;68.60;98439.94;4863269;29;20041;-87
2021/11/08 03:32:51;;;;;;;34.45;13.98;;;;;;;7.39;68.64;98426.84;4863324;29;20044;-83
2021/11/08 03:35:21;;;;;;;29.77;13.55;;;;;;;7.25;68.54;98411.44;4860563;29;20060;-81
2021/11/08 03:37:48;;;;;;;35.30;13.00;;;;;;;7.20;68.74;98397.97;4845825;29;20101;-86
2021/11/08 03:40:27;;;;;;;37.25;14.05;;;;;;;7.32;68.57;98415.59;4857037;29;20428;-84
2021/11/08 03:42:56;;;;;;;35.90;13.65;;;;;;;7.34;68.59;98416.88;4876741;29;20542;-80
2021/11/08 03:45:28;;;;;;;37.15;14.23;;;;;;;7.30;68.52;98408.56;4876450;29;20029;-83
2021/11/08 03:47:55;;;;;;;37.90;13.98;;;;;;;7.33;68.43;98401.69;4858081;29;20045;-81
2021/11/08 03:50:22;;;;;;;32.90;12.45;;;;;;;7.21;68.51;98394.13;4859281;29;20109;-82
2021/11/08 03:52:49;;;;;;;;;;;;;;;7.33;68.66;98412.59;4863792;29;20048;-82
2021/11/08 03:55:15;;;;;;;;;;;;;;;7.32;68.53;98410.97;4857906;29;19959;-84
2021/11/08 03:57:42;;;;;;;33.58;12.32;;;;;;;7.27;68.41;98409.19;4844272;29;19928;-85
2021/11/08 04:00:13;;;;;;;29.42;12.35;;;;;;;7.26;68.48;98395.91;4847650;29;20041;-82
2021/11/08 04:02:42;;;;;;;32.05;12.52;;;;;;;7.28;68.86;98397.22;4858871;29;20041;-82
2021/11/08 04:05:14;;;;;;;34.22;13.98;;;;;;;7.27;68.56;98397.53;4858666;29;20048;-81
2021/11/08 04:07:41;;;;;;;35.28;14.93;;;;;;;7.29;68.62;98396.09;4863715;29;20053;-81
2021/11/08 04:10:10;;;;;;;42.15;14.85;;;;;;;7.34;68.32;98397.88;4860965;29;20108;-81
2021/11/08 04:12:39;;;;;;;42.92;15.38;;;;;;;7.34;68.20;98392.44;4859628;29;20176;-81
2021/11/08 04:15:11;;;;;;;31.83;14.32;;;;;;;7.24;68.31;98373.69;4862592;29;20053;-92
2021/11/08 04:17:45;;;;;;;35.55;13.38;;;;;;;7.33;68.31;98395.47;4860669;29;20048;-90
2021/11/08 04:20:19;;;;;;;33.55;13.40;;;;;;;7.30;68.25;98389.53;4877244;29;20141;-90
2021/11/08 04:22:48;;;;;;;31.55;13.00;;;;;;;7.29;68.27;98392.59;4861657;29;20065;-85
2021/11/08 04:25:15;;;;;;;43.75;13.40;;;;;;;7.17;68.11;98365.97;4853296;29;20109;-90
2021/11/08 04:27:42;;;;;;;;;;;;;;;7.32;68.47;98386.53;4858431;29;20057;-83
2021/11/08 04:30:09;;;;;;;36.50;13.50;;;;;;;7.43;68.77;98387.03;4870465;29;19932;-88
2021/11/08 04:32:48;;;;;;;37.35;14.38;;;;;;;7.30;68.51;98348.75;4833191;29;20083;-87
2021/11/08 04:51:15;;;;;;;34.67;14.73;;;;;;;7.27;70.09;98371.13;4804739;29;20050;-83
2021/11/08 05:21:00;;;;;;;40.60;14.30;;;;;;;6.68;70.55;98290.97;4795147;29;20050;-90
2021/11/08 05:23:35;;;;;;;44.55;16.35;;;;;;;7.06;71.82;98338.28;4899425;29;20044;-89
2021/11/08 05:28:42;;;;;;;36.35;15.98;;;;;;;6.90;71.91;98315.38;4882530;29;20514;-89
2021/11/08 05:31:08;;;;;;;33.97;14.20;;;;;;;7.01;72.43;98324.81;4899273;29;20524;-90
2021/11/08 05:33:34;;;;;;;40.33;16.15;;;;;;;7.04;72.63;98337.00;4866837;29;20406;-88
2021/11/08 05:36:00;;;;;;;36.47;15.38;;;;;;;7.02;72.75;98331.09;4900034;29;20040;-89
2021/11/08 05:38:27;;;;;;;41.38;15.85;;;;;;;6.96;72.55;98308.69;4866892;29;20049;-87
2021/11/08 05:40:54;;;;;;;40.75;16.50;;;;;;;6.86;72.91;98295.38;4899615;29;20089;-87
2021/11/08 05:43:20;;;;;;;39.75;16.38;;;;;;;6.75;72.85;98273.09;4867223;29;20075;-87
2021/11/08 05:45:47;;;;;;;36.03;14.63;;;;;;;6.95;73.33;98314.41;4867148;29;20040;-87
2021/11/08 05:48:13;;;;;;;43.20;17.23;;;;;;;6.90;73.72;98309.13;4896879;29;20115;-89
2021/11/08 05:50:42;;;;;;;45.58;17.80;;;;;;;6.91;74.29;98327.03;4866336;29;20293;-90
2021/11/08 05:53:09;;;;;;;38.25;16.27;;;;;;;6.88;74.42;98323.00;4897148;29;20044;-86
2021/11/08 05:56:17;;;;;;;40.47;16.77;;;;;;;6.96;74.68;98329.63;4883896;29;20055;-83
2021/11/08 06:49:10;;;;;;;41.83;17.08;;;;;;;6.76;77.50;98309.25;4897732;29;20040;-89
2021/11/08 06:51:31;;;;;;;40.20;16.20;;;;;;;6.61;77.31;98288.69;4882637;29;20073;-89
2021/11/08 06:54:01;;;;;;;50.17;18.90;;;;;;;6.71;77.79;98303.94;4898087;29;20060;-89
2021/11/08 06:56:29;;;;;;;50.95;19.90;;;;;;;6.52;77.68;98275.09;4897003;29;20051;-88
2021/11/08 06:58:57;;;;;;;62.28;22.58;;;;;;;6.79;78.08;98306.69;4897932;29;20067;-91
2021/11/08 07:01:23;;;;;;;47.80;18.98;;;;;;;6.70;77.66;98292.28;4883173;29;20112;-90
2021/11/08 07:03:49;;;;;;;39.83;16.90;;;;;;;6.63;77.45;98285.69;4897964;29;20048;-91
2021/11/08 07:06:15;;;;;;;38.72;16.52;;;;;;;6.77;77.61;98298.03;4882322;29;20178;-92
2021/11/08 07:08:43;;;;;;;46.58;17.95;;;;;;;6.56;77.92;98269.84;4889215;29;20104;-91
2021/11/08 07:11:11;;;;;;;43.47;17.95;;;;;;;6.66;77.59;98288.59;4884383;29;20040;-91
2021/11/08 07:14:02;;;;;;;43.50;16.85;;;;;;;6.35;78.19;98245.13;4897962;29;20064;-92
2021/11/08 07:17:23;;;;;;;49.90;18.27;;;;;;;6.72;78.14;98302.81;4866918;29;20041;-92
2021/11/08 07:20:14;;;;;;;43.50;17.00;;;;;;;6.76;78.25;98298.38;4881928;29;20096;-93
2021/11/08 07:22:41;;;;;;;41.75;16.75;;;;;;;6.75;78.25;98291.31;4896890;29;20064;-79
2021/11/08 07:25:08;;;;;;;42.65;15.30;;;;;;;6.78;78.24;98283.34;4895813;29;20040;-75
2021/11/08 07:27:34;;;;;;;33.50;15.20;;;;;;;6.75;78.10;98283.97;4895139;29;20083;-76
2021/11/08 07:30:00;;;;;;;46.60;16.43;;;;;;;6.79;78.04;98295.81;4893343;29;20476;-83
2021/11/08 07:32:27;;;;;;;44.40;17.02;;;;;;;6.77;78.21;98284.47;4877242;29;20051;-80
2021/11/08 07:34:54;;;;;;;45.97;16.30;;;;;;;6.81;77.96;98282.72;4879413;29;20048;-75
2021/11/08 07:37:20;;;;;;;;;;;;;;;6.80;78.00;98283.03;4877489;29;20033;-77
2021/11/08 07:39:46;;;;;;;45.40;14.83;;;;;;;6.69;78.06;98279.81;4877206;29;20496;-83
2021/11/08 07:42:14;;;;;;;29.88;13.60;;;;;;;6.82;77.47;98287.06;4878902;29;20045;-77
2021/11/08 07:44:40;;;;;;;35.20;15.20;;;;;;;6.83;78.07;98287.84;4877583;29;20063;-80
2021/11/08 07:47:06;;;;;;;35.60;14.65;;;;;;;6.79;78.00;98284.16;4877550;29;20050;-81
2021/11/08 07:49:32;;;;;;;32.40;14.10;;;;;;;6.85;77.74;98287.53;4876940;29;20049;-81
2021/11/08 07:51:59;;;;;;;36.30;14.63;;;;;;;6.80;77.85;98281.13;4877481;29;20044;-82
2021/11/08 07:54:29;;;;;;;32.92;13.63;;;;;;;6.76;77.87;98279.34;4877266;29;20052;-77
2021/11/08 07:56:58;;;;;;;37.00;15.30;;;;;;;6.80;78.36;98289.28;4895852;29;20040;-85
2021/11/08 07:59:24;;;;;;;34.20;13.38;;;;;;;6.82;78.02;98262.63;4898697;29;20144;-81
2021/11/08 08:01:50;;;;;;;29.08;13.55;;;;;;;6.78;77.53;98258.91;4897916;29;20091;-78
2021/11/08 08:04:16;;;;;;;39.50;13.77;;;;;;;6.83;77.75;98261.50;4897607;29;20520;-77
2021/11/08 08:06:43;;;;;;;32.20;13.45;;;;;;;6.85;77.84;98261.16;4898375;29;20040;-77
2021/11/08 08:09:10;;;;;;;35.90;14.32;;;;;;;6.91;78.08;98270.78;4881118;29;20075;-78
2021/11/08 08:11:38;;;;;;;35.55;13.90;;;;;;;6.93;77.81;98265.84;4881006;29;20510;-79
2021/11/08 08:14:04;;;;;;;30.55;13.88;;;;;;;6.96;77.97;98265.22;4879345;29;20077;-83
2021/11/08 08:16:31;;;;;;;;;;;;;;;6.94;76.83;98263.91;4884460;29;20057;-85
2021/11/08 08:18:57;;;;;;;28.53;13.07;;;;;;;6.95;77.55;98260.88;4884193;29;19930;-85
2021/11/08 08:21:23;;;;;;;25.35;11.45;;;;;;;6.94;77.13;98255.78;4890094;29;20494;-83
2021/11/08 08:23:56;;;;;;;28.08;13.07;;;;;;;6.75;77.44;98228.84;4898485;29;20103;-82
2021/11/08 08:26:26;;;;;;;25.08;11.98;;;;;;;6.96;77.27;98261.69;4899482;29;20047;-81
2021/11/08 08:28:52;;;;;;;25.77;12.48;;;;;;;6.87;77.24;98239.94;4899301;29;20041;-77
2021/11/08 08:31:20;;;;;;;;;;;;;;;6.92;77.73;98253.38;4900595;29;20124;-78
2021/11/08 08:33:46;;;;;;;25.13;11.60;;;;;;;6.94;77.16;98247.63;4900206;29;19929;-75
2021/11/08 08:36:13;;;;;;;;;;;;;;;6.98;77.20;98246.66;4900376;29;20127;-86
2021/11/08 08:38:40;;;;;;;29.27;12.37;;;;;;;6.98;77.03;98251.31;4899996;29;19958;-83
2021/11/08 08:41:07;;;;;;;31.55;13.27;;;;;;;6.88;77.34;98219.78;4899793;29;20095;-85
2021/11/08 08:43:33;;;;;;;27.85;11.85;;;;;;;7.00;77.01;98247.16;4901160;29;20206;-83
2021/11/08 08:46:00;;;;;;;25.60;12.00;;;;;;;6.93;76.94;98230.53;4884292;29;20056;-86
2021/11/08 08:48:27;;;;;;;25.10;11.85;;;;;;;7.02;76.62;98246.84;4905890;29;20041;-83
2021/11/08 08:50:55;;;;;;;27.30;11.68;;;;;;;7.02;76.88;98242.22;4913780;29;20144;-86
2021/11/08 08:53:22;;;;;;;27.15;12.38;;;;;;;7.03;77.11;98234.88;4913209;29;20045;-85
2021/11/08 08:55:48;;;;;;;28.87;12.77;;;;;;;7.09;76.70;98236.31;4899555;29;20040;-85
2021/11/08 08:58:14;;;;;;;31.63;12.05;;;;;;;7.08;76.69;98229.28;4913697;29;20056;-83
2021/11/08 09:00:47;;;;;;;27.73;13.30;;;;;;;7.11;76.62;98242.22;4897960;29;20045;-84
2021/11/08 09:03:17;;;;;;;25.48;12.88;;;;;;;7.15;76.96;98226.09;4899946;29;20067;-75
2021/11/08 09:05:46;;;;;;;28.13;13.43;;;;;;;7.12;77.03;98232.97;4902321;29;20367;-75
2021/11/08 09:08:12;;;;;;;28.70;13.82;;;;;;;7.18;76.97;98228.97;4898301;29;20391;-80
2021/11/08 09:10:43;;;;;;;28.88;13.90;;;;;;;7.17;76.67;98232.81;4898243;29;20132;-78
2021/11/08 09:13:10;;;;;;;36.53;15.23;;;;;;;7.07;77.11;98211.38;4898439;29;20041;-87
2021/11/08 09:15:37;;;;;;;;;;;;;;;7.19;76.88;98229.78;4882282;29;20044;-89
2021/11/08 09:18:05;;;;;;;30.90;13.88;;;;;;;7.11;77.21;98223.19;4882151;29;19963;-88
2021/11/08 09:20:31;;;;;;;;;;;;;;;7.13;76.89;98220.97;4867316;29;20048;-89
2021/11/08 09:23:00;;;;;;;33.13;13.18;;;;;;;6.92;77.30;98190.91;4897653;29;20025;-88
2021/11/08 09:25:26;;;;;;;30.17;14.57;;;;;;;7.21;76.97;98216.66;4883018;29;20052;-87
2021/11/08 09:27:55;;;;;;;38.55;15.23;;;;;;;7.17;76.91;98213.78;4882684;29;20040;-88
2021/11/08 09:30:34;;;;;;;38.80;14.70;;;;;;;7.22;76.83;98210.94;4867190;29;20044;-89
2021/11/08 09:33:00;;;;;;;29.45;14.25;;;;;;;7.13;76.97;98195.72;4882209;29;20044;-87
2021/11/08 09:35:36;;;;;;;39.00;14.98;;;;;;;7.23;76.67;98207.09;4899077;29;20052;-88
2021/11/08 09:38:09;;;;;;;34.75;14.93;;;;;;;7.13;76.60;98201.97;4882502;29;20219;-90
2021/11/08 09:40:38;;;;;;;31.52;14.00;;;;;;;7.27;76.63;98218.91;4883023;29;20197;-90
2021/11/08 09:43:08;;;;;;;29.42;14.38;;;;;;;7.25;76.19;98206.75;4868465;29;20080;-90
2021/11/08 09:45:35;;;;;;;32.25;14.13;;;;;;;7.16;76.19;98192.38;4883380;29;20044;-88
2021/11/08 09:48:10;;;;;;;36.67;14.27;;;;;;;7.22;76.31;98201.97;4897057;29;20037;-90
2021/11/08 09:50:36;;;;;;;32.80;13.75;;;;;;;7.36;76.02;98216.22;4897600;29;20056;-88
2021/11/08 09:53:05;;;;;;;31.97;14.43;;;;;;;7.41;75.88;98209.81;4865917;29;20052;-88
2021/11/08 09:55:32;;;;;;;30.17;14.35;;;;;;;7.31;75.93;98197.34;4898042;29;20128;-89
2021/11/08 09:57:58;;;;;;;33.42;13.82;;;;;;;7.22;75.31;98182.94;4898302;29;20052;-89
2021/11/08 10:01:07;;;;;;;26.00;11.60;;;;;;;7.30;75.15;98182.16;4897177;29;20431;-88
2021/11/08 10:03:33;;;;;;;30.75;14.60;;;;;;;7.39;75.72;98187.59;4890113;29;20048;-88
2021/11/08 10:06:01;;;;;;;29.10;13.97;;;;;;;7.43;75.22;98194.78;4883072;29;20071;-89
2021/11/08 10:08:36;;;;;;;34.03;14.25;;;;;;;7.47;74.73;98187.59;4882706;29;20052;-88
2021/11/08 10:11:08;;;;;;;35.20;13.90;;;;;;;7.51;74.99;98188.53;4866848;29;20040;-89
2021/11/08 10:13:37;;;;;;;31.08;14.70;;;;;;;7.56;74.80;98186.78;4867036;29;20043;-88
2021/11/08 10:16:15;;;;;;;30.48;15.00;;;;;;;7.50;74.59;98184.22;4866454;29;20059;-88
2021/11/08 10:18:48;;;;;;;36.15;14.43;;;;;;;7.49;74.62;98181.84;4898279;29;20041;-89
2021/11/08 10:21:20;;;;;;;31.48;13.65;;;;;;;7.53;74.58;98180.88;4903871;29;20474;-89
2021/11/08 10:23:50;;;;;;;32.63;13.45;;;;;;;7.35;74.18;98151.28;4896626;29;20454;-88
2021/11/08 10:26:27;;;;;;;33.08;15.05;;;;;;;7.51;74.72;98174.16;4897531;29;20047;-90
2021/11/08 10:29:03;;;;;;;28.80;13.45;;;;;;;7.54;74.76;98178.94;4897502;29;20044;-90
2021/11/08 10:31:37;;;;;;;30.77;14.38;;;;;;;7.38;74.86;98159.59;4866538;29;20084;-90
2021/11/08 10:34:07;;;;;;;33.00;12.85;;;;;;;7.46;74.40;98163.44;4896206;29;20060;-89
2021/11/08 10:36:33;;;;;;;33.15;14.20;;;;;;;7.37;74.13;98149.06;4897515;29;20036;-89
2021/11/08 10:39:01;;;;;;;35.78;13.27;;;;;;;7.33;74.28;98137.22;4880924;29;20506;-89
2021/11/08 10:44:15;;;;;;;37.90;14.50;;;;;;;7.44;74.06;98144.72;4896571;29;20041;-89
2021/11/08 10:46:48;;;;;;;32.42;14.98;;;;;;;7.64;74.00;98156.06;4897277;29;20040;-90
2021/11/08 10:49:17;;;;;;;38.35;14.27;;;;;;;7.69;74.15;98140.38;4866073;29;20112;-85
2021/11/08 10:51:46;;;;;;;27.02;12.77;;;;;;;7.76;73.20;98154.28;4897133;29;20040;-76
2021/11/08 10:54:29;;;;;;;30.58;14.13;;;;;;;7.80;73.21;98154.44;4897470;29;20048;-76
2021/11/08 10:57:05;;;;;;;24.48;10.70;;;;;;;7.77;73.09;98147.72;4897511;29;20048;-84
2021/11/08 10:59:42;;;;;;;24.70;12.55;;;;;;;7.78;73.09;98153.94;4897411;29;20052;-75
2021/11/08 11:02:13;;;;;;;30.73;14.02;;;;;;;7.77;72.86;98146.94;4897132;29;20419;-76
2021/11/08 11:04:57;;;;;;;27.33;12.73;;;;;;;7.71;73.25;98143.56;4895771;29;20112;-76
2021/11/08 11:07:27;;;;;;;24.98;12.73;;;;;;;7.68;72.95;98132.53;4896684;29;20072;-75
2021/11/08 11:10:07;;;;;;;27.42;13.73;;;;;;;7.74;73.44;98140.19;4896737;29;20041;-75
2021/11/08 11:12:35;;;;;;;36.75;13.50;;;;;;;7.66;73.33;98127.44;4896740;29;20036;-75
2021/11/08 11:15:09;;;;;;;32.47;14.18;;;;;;;7.80;73.37;98146.28;4896833;29;20100;-77
2021/11/08 11:17:41;;;;;;;28.13;12.95;;;;;;;7.64;73.12;98126.94;4896622;29;20048;-84
2021/11/08 11:20:18;;;;;;;26.55;11.82;;;;;;;7.69;73.09;98148.53;4896749;29;20055;-74
2021/11/08 11:23:10;;;;;;;21.15;10.13;;;;;;;7.68;72.84;98141.53;4896556;29;20048;-74
2021/11/08 11:25:40;;;;;;;27.50;12.45;;;;;;;7.71;72.89;98138.13;4895289;29;20041;-74
2021/11/08 11:28:07;;;;;;;28.38;12.63;;;;;;;7.79;72.96;98130.28;4896620;29;20131;-79
2021/11/08 11:30:36;;;;;;;28.15;13.52;;;;;;;7.87;73.00;98143.06;4895147;29;20040;-76
2021/11/08 11:33:10;;;;;;;26.77;12.95;;;;;;;7.80;72.66;98134.59;4899890;29;20537;-84
2021/11/08 11:35:45;;;;;;;31.98;11.57;;;;;;;7.80;72.66;98138.13;4901181;29;20052;-80
2021/11/08 11:38:19;;;;;;;32.92;13.90;;;;;;;7.82;72.97;98135.88;4900850;29;20052;-84
2021/11/08 11:40:57;;;;;;;23.48;11.93;;;;;;;7.77;72.81;98134.13;4900594;29;20064;-81
2021/11/08 11:43:31;;;;;;;32.50;13.50;;;;;;;7.79;73.26;98135.75;4900107;29;20422;-76
2021/11/08 11:45:58;;;;;;;25.02;12.73;;;;;;;7.83;72.93;98128.50;4899080;29;20056;-77
2021/11/08 11:48:27;;;;;;;24.40;11.95;;;;;;;7.83;72.38;98120.34;4900247;29;20047;-74
2021/11/08 11:50:54;;;;;;;33.58;12.18;;;;;;;7.79;73.01;98119.41;4898951;29;20036;-80
2021/11/08 11:53:22;;;;;;;27.15;11.73;;;;;;;7.81;72.98;98111.72;4899776;29;20079;-73
2021/11/08 11:55:49;;;;;;;24.73;11.77;;;;;;;7.85;73.38;98112.69;4899647;29;20614;-78
2021/11/08 11:58:16;;;;;;;30.98;12.93;;;;;;;7.92;72.46;98105.59;4899497;29;20633;-84
2021/11/08 12:00:45;;;;;;;27.33;12.68;;;;;;;7.89;72.45;98111.69;4900125;29;20045;-79
2021/11/08 12:03:11;;;;;;;28.15;12.73;;;;;;;7.87;72.41;98126.75;4899715;29;20075;-84
2021/11/08 12:05:39;;;;;;;24.83;12.63;;;;;;;7.76;72.69;98115.41;4900127;29;20537;-81
2021/11/08 12:08:08;;;;;;;30.02;12.20;;;;;;;7.60;72.78;98093.38;4899850;29;20076;-83
2021/11/08 12:10:52;;;;;;;28.05;12.23;;;;;;;7.82;73.02;98119.56;4900063;29;20044;-86
2021/11/08 12:13:22;;;;;;;27.08;12.88;;;;;;;7.83;72.76;98126.59;4899398;29;20045;-78
2021/11/08 12:15:51;;;;;;;26.65;13.15;;;;;;;7.84;72.80;98130.91;4899757;29;20517;-82
2021/11/08 12:18:19;;;;;;;27.45;12.07;;;;;;;7.72;72.65;98114.47;4898270;29;20045;-80
2021/11/08 12:20:53;;;;;;;28.02;12.68;;;;;;;7.81;72.68;98125.31;4899169;29;20043;-80
2021/11/08 12:23:30;;;;;;;25.70;11.93;;;;;;;7.84;72.45;98139.06;4898843;29;20429;-78
2021/11/08 12:25:58;;;;;;;22.42;11.00;;;;;;;7.82;72.56;98129.66;4899407;29;20521;-78
2021/11/08 12:28:26;;;;;;;24.42;12.02;;;;;;;7.83;73.09;98129.31;4898355;29;20049;-86
2021/11/08 12:31:04;;;;;;;29.00;12.90;;;;;;;7.83;72.75;98125.81;4898326;29;20127;-80
2021/11/08 12:33:33;;;;;;;28.23;10.95;;;;;;;7.80;72.41;98119.06;4898342;29;20040;-76
2021/11/08 12:36:11;;;;;;;24.55;11.98;;;;;;;7.83;72.65;98121.16;4897639;29;20127;-75
2021/11/08 12:38:43;;;;;;;30.17;12.25;;;;;;;7.76;72.57;98116.22;4897641;29;20064;-76
2021/11/08 12:41:24;;;;;;;28.35;11.98;;;;;;;7.81;72.69;98117.94;4898655;29;20096;-82
2021/11/08 12:43:56;;;;;;;27.23;11.73;;;;;;;7.80;72.60;98118.28;4898947;29;20067;-87
2021/11/08 12:46:26;;;;;;;21.40;9.82;;;;;;;7.66;72.78;98100.22;4886135;29;20036;-84
2021/11/08 12:49:03;;;;;;;31.67;12.95;;;;;;;7.61;73.43;98096.88;4900352;29;20044;-84
2021/11/08 12:51:30;;;;;;;24.85;12.30;;;;;;;7.71;73.54;98110.13;4919950;29;20044;-86
2021/11/08 12:54:08;;;;;;;27.92;12.57;;;;;;;7.55;74.10;98101.72;4911502;29;20040;-83
2021/11/08 12:56:43;;;;;;;25.80;12.20;;;;;;;7.70;74.39;98128.38;4912142;29;20068;-79
2021/11/08 12:59:24;;;;;;;29.40;12.73;;;;;;;7.66;74.45;98130.16;4899203;29;20045;-81
2021/11/08 13:02:09;;;;;;;30.70;13.35;;;;;;;7.61;75.31;98127.59;4898600;29;20041;-74
2021/11/08 13:04:47;;;;;;;33.88;14.10;;;;;;;7.61;75.42;98133.03;4900703;29;20537;-79
2021/11/08 13:07:18;;;;;;;29.25;13.10;;;;;;;7.63;75.78;98136.22;4904037;29;20040;-79
2021/11/08 13:09:48;;;;;;;26.38;12.43;;;;;;;7.59;76.00;98126.34;4908262;29;20048;-74
2021/11/08 13:12:43;;;;;;;37.35;14.05;;;;;;;7.56;76.48;98130.50;4909226;29;20036;-77
2021/11/08 13:15:11;;;;;;;29.60;14.02;;;;;;;7.57;76.50;98131.28;4896950;29;20052;-78
2021/11/08 13:17:46;;;;;;;27.40;12.75;;;;;;;7.55;76.73;98128.91;4895392;29;20125;-80
2021/11/08 13:20:16;;;;;;;37.08;13.48;;;;;;;7.55;76.89;98131.63;4888951;29;20045;-75
2021/11/08 13:22:45;;;;;;;30.88;13.38;;;;;;;7.60;76.54;98134.16;4897973;29;20041;-75
2021/11/08 13:25:23;;;;;;;30.92;15.00;;;;;;;7.69;76.50;98136.88;4891266;29;20119;-79
2021/11/08 13:27:55;;;;;;;35.85;15.43;;;;;;;7.51;76.53;98119.75;4882795;29;20041;-73
2021/11/08 13:30:30;;;;;;;31.67;14.70;;;;;;;7.54;76.82;98138.16;4891017;29;20101;-80